createdAt,value
2022-11-27T00:00:55.173Z,79.26
2022-11-27T00:03:00.558Z,79.58
2022-11-27T00:05:04.495Z,79.33
2022-11-27T00:07:08.215Z,79.18
2022-11-27T00:09:15.212Z,79.12
2022-11-27T00:11:21.198Z,79.49
2022-11-27T00:13:25.096Z,79.90
2022-11-27T00:15:28.853Z,80.05
2022-11-27T00:17:32.944Z,80.06
2022-11-27T00:19:38.451Z,79.74
2022-11-27T00:21:42.637Z,79.83
2022-11-27T00:23:46.709Z,79.74
2022-11-27T00:25:53.553Z,79.72
2022-11-27T00:27:57.427Z,79.83
2022-11-27T00:30:01.526Z,80.05
2022-11-27T00:32:08.606Z,79.65
2022-11-27T00:34:13.056Z,79.87
2022-11-27T00:36:18.704Z,80.19
2022-11-27T00:38:22.720Z,80.27
2022-11-27T00:40:26.581Z,80.59
2022-11-27T00:42:30.268Z,80.77
2022-11-27T00:44:34.710Z,81.35
2022-11-27T00:46:38.654Z,81.26
2022-11-27T00:48:43.101Z,81.26
2022-11-27T00:50:46.813Z,81.43
2022-11-27T00:52:52.368Z,81.84
2022-11-27T00:54:56.158Z,81.90
2022-11-27T00:56:59.934Z,82.29
2022-11-27T00:59:04.472Z,81.85
2022-11-27T01:01:09.621Z,82.30
2022-11-27T01:03:14.113Z,82.30
2022-11-27T01:05:18.254Z,82.67
2022-11-27T01:07:22.814Z,82.62
2022-11-27T01:09:27.909Z,82.66
2022-11-27T01:11:33.258Z,83.15
2022-11-27T01:13:38.432Z,82.70
2022-11-27T01:15:42.221Z,82.51
2022-11-27T01:17:45.965Z,82.31
2022-11-27T01:19:50.809Z,82.27
2022-11-27T01:21:54.736Z,82.18
2022-11-27T01:23:58.615Z,81.88
2022-11-27T01:26:04.687Z,82.21
2022-11-27T01:28:08.302Z,82.32
2022-11-27T01:30:13.865Z,82.60
2022-11-27T01:32:17.478Z,82.66
2022-11-27T01:34:21.307Z,83.04
2022-11-27T01:36:25.255Z,83.02
2022-11-27T01:38:31.344Z,83.07
2022-11-27T01:40:35.442Z,83.44
2022-11-27T01:42:40.531Z,83.53
2022-11-27T01:44:56.447Z,83.92
2022-11-27T01:47:03.331Z,84.19
2022-11-27T01:49:22.977Z,83.88
2022-11-27T01:51:27.087Z,84.16
2022-11-27T01:53:30.899Z,84.13
2022-11-27T01:55:38.584Z,84.07
2022-11-27T01:57:47.290Z,83.43
2022-11-27T01:59:52.678Z,83.85
2022-11-27T02:01:56.460Z,83.31
2022-11-27T02:04:02.586Z,83.04
2022-11-27T02:06:06.793Z,83.51
2022-11-27T02:08:15.464Z,83.25
2022-11-27T02:10:19.388Z,83.82
2022-11-27T02:12:26.109Z,83.60
2022-11-27T02:14:38.830Z,83.64
2022-11-27T02:16:49.624Z,83.67
2022-11-27T02:19:00.052Z,83.49
2022-11-27T02:21:11.502Z,83.24
2022-11-27T02:23:42.800Z,83.30
2022-11-27T02:25:58.348Z,82.30
2022-11-27T02:28:19.193Z,82.05
2022-11-27T02:30:23.992Z,82.23
2022-11-27T02:32:31.070Z,81.48
2022-11-27T02:34:44.528Z,81.82
2022-11-27T02:36:50.894Z,81.49
2022-11-27T02:39:00.953Z,81.64
2022-11-27T02:41:08.854Z,81.41
2022-11-27T02:43:16.168Z,81.93
2022-11-27T02:45:27.440Z,81.71
2022-11-27T02:47:32.237Z,81.41
2022-11-27T02:49:38.590Z,81.54
2022-11-27T02:51:46.236Z,81.72
2022-11-27T02:53:54.246Z,82.15
2022-11-27T02:55:59.798Z,81.99
2022-11-27T02:58:07.166Z,82.02
2022-11-27T03:00:11.979Z,81.43
2022-11-27T03:02:22.600Z,81.99
2022-11-27T03:04:32.460Z,81.84
2022-11-27T03:06:43.056Z,81.39
2022-11-27T03:08:53.471Z,81.25
2022-11-27T03:11:02.846Z,81.21
2022-11-27T03:13:06.343Z,80.66
2022-11-27T03:15:10.704Z,80.98
2022-11-27T03:17:28.184Z,80.21
2022-11-27T03:19:39.267Z,80.55
2022-11-27T03:21:45.238Z,80.64
2022-11-27T03:23:48.526Z,80.10
2022-11-27T03:25:53.055Z,80.32
2022-11-27T03:27:59.596Z,80.15
2022-11-27T03:30:05.908Z,80.05
2022-11-27T03:32:09.334Z,79.93
2022-11-27T03:34:14.221Z,80.38
2022-11-27T03:36:19.306Z,80.07
2022-11-27T03:38:22.596Z,79.96
2022-11-27T03:40:31.233Z,80.24
2022-11-27T03:42:45.710Z,79.87
2022-11-27T03:44:55.616Z,79.74
2022-11-27T03:47:11.981Z,80.15
2022-11-27T03:49:25.982Z,79.34
2022-11-27T03:51:40.441Z,80.05
2022-11-27T03:53:53.390Z,79.60
2022-11-27T03:56:08.435Z,79.56
2022-11-27T03:58:20.911Z,79.38
2022-11-27T04:00:24.809Z,78.38
2022-11-27T04:02:32.508Z,78.09
2022-11-27T04:04:37.299Z,77.74
2022-11-27T04:06:40.786Z,77.28
2022-11-27T04:08:44.387Z,76.89
2022-11-27T04:10:48.014Z,76.13
2022-11-27T04:12:51.329Z,76.08
2022-11-27T04:14:54.606Z,76.72
2022-11-27T04:16:57.912Z,76.59
2022-11-27T04:19:01.292Z,76.29
2022-11-27T04:21:06.172Z,77.26
2022-11-27T04:23:10.149Z,77.08
2022-11-27T04:25:13.517Z,76.82
2022-11-27T04:27:16.925Z,76.80
2022-11-27T04:29:20.234Z,76.91
2022-11-27T04:31:23.486Z,76.98
2022-11-27T04:33:26.960Z,76.69
2022-11-27T04:35:30.211Z,76.64
2022-11-27T04:37:34.870Z,77.27
2022-11-27T04:39:38.136Z,76.71
2022-11-27T04:41:41.450Z,77.45
2022-11-27T04:43:44.830Z,76.92
2022-11-27T04:45:48.096Z,76.70
2022-11-27T04:47:51.430Z,77.16
2022-11-27T04:49:54.666Z,76.51
2022-11-27T04:51:58.007Z,77.22
2022-11-27T04:54:02.754Z,76.92
2022-11-27T04:56:06.448Z,76.80
2022-11-27T04:58:09.712Z,76.76
2022-11-27T05:00:14.012Z,77.15
2022-11-27T05:02:17.303Z,77.03
2022-11-27T05:04:20.547Z,76.62
2022-11-27T05:06:23.900Z,76.85
2022-11-27T05:08:27.583Z,77.09
2022-11-27T05:10:32.426Z,77.54
2022-11-27T05:12:35.834Z,77.84
2022-11-27T05:14:39.896Z,77.32
2022-11-27T05:16:43.529Z,77.84
2022-11-27T05:18:46.793Z,77.92
2022-11-27T05:20:56.623Z,77.87
2022-11-27T05:22:59.938Z,77.42
2022-11-27T05:25:03.326Z,77.66
2022-11-27T05:27:08.002Z,77.73
2022-11-27T05:29:12.053Z,78.54
2022-11-27T05:31:15.444Z,78.55
2022-11-27T05:33:20.211Z,78.14
2022-11-27T05:35:23.478Z,78.65
2022-11-27T05:37:26.694Z,79.13
2022-11-27T05:39:30.031Z,78.90
2022-11-27T05:41:33.288Z,78.92
2022-11-27T05:43:38.537Z,79.35
2022-11-27T05:45:41.740Z,79.50
2022-11-27T05:47:44.991Z,79.02
2022-11-27T05:49:48.408Z,79.37
2022-11-27T05:51:52.058Z,80.04
2022-11-27T05:53:55.658Z,79.54
2022-11-27T05:56:03.271Z,79.54
2022-11-27T05:58:06.529Z,79.93
2022-11-27T06:00:12.819Z,79.62
2022-11-27T06:02:20.872Z,79.34
2022-11-27T06:04:27.190Z,79.48
2022-11-27T06:06:30.578Z,80.09
2022-11-27T06:08:33.855Z,79.67
2022-11-27T06:10:39.093Z,79.78
2022-11-27T06:12:42.656Z,80.09
2022-11-27T06:14:45.849Z,80.12
2022-11-27T06:16:50.835Z,80.46
2022-11-27T06:18:56.391Z,80.82
2022-11-27T06:20:59.669Z,81.11
2022-11-27T06:23:02.924Z,81.79
2022-11-27T06:25:07.020Z,81.51
2022-11-27T06:27:10.595Z,81.68
2022-11-27T06:29:13.962Z,81.50
2022-11-27T06:31:19.817Z,81.78
2022-11-27T06:33:24.544Z,81.96
2022-11-27T06:35:27.762Z,81.92
2022-11-27T06:37:31.913Z,81.86
2022-11-27T06:39:35.576Z,82.92
2022-11-27T06:41:39.512Z,82.82
2022-11-27T06:43:45.914Z,82.95
2022-11-27T06:45:56.960Z,83.26
2022-11-27T06:48:00.447Z,83.10
2022-11-27T06:50:07.702Z,83.75
2022-11-27T06:52:11.348Z,83.53
2022-11-27T06:54:15.042Z,83.61
2022-11-27T06:56:20.849Z,83.70
2022-11-27T06:58:29.528Z,83.66
2022-11-27T07:00:34.804Z,83.79
2022-11-27T07:02:38.671Z,83.65
2022-11-27T07:04:42.476Z,83.84
2022-11-27T07:06:47.888Z,83.97
2022-11-27T07:08:51.641Z,83.97
2022-11-27T07:10:55.292Z,84.80
2022-11-27T07:12:58.938Z,84.35
2022-11-27T07:15:04.397Z,84.21
2022-11-27T07:17:08.274Z,83.92
2022-11-27T07:19:12.423Z,84.32
2022-11-27T07:21:15.947Z,84.28
2022-11-27T07:23:21.174Z,84.35
2022-11-27T07:25:24.672Z,84.24
2022-11-27T07:27:28.251Z,84.67
2022-11-27T07:29:31.925Z,84.68
2022-11-27T07:31:35.961Z,85.34
2022-11-27T07:33:39.926Z,85.34
2022-11-27T07:35:43.899Z,85.05
2022-11-27T07:37:47.541Z,85.64
2022-11-27T07:40:02.353Z,85.81
2022-11-27T07:42:36.406Z,86.22
2022-11-27T07:44:31.779Z,86.15
2022-11-27T07:46:35.627Z,85.64
2022-11-27T07:48:40.230Z,86.43
2022-11-27T07:50:43.941Z,86.46
2022-11-27T07:52:47.851Z,87.31
2022-11-27T07:54:53.228Z,87.04
2022-11-27T07:56:56.776Z,87.05
2022-11-27T07:59:00.334Z,86.66
2022-11-27T08:01:08.935Z,86.87
2022-11-27T08:03:12.813Z,87.04
2022-11-27T08:05:17.192Z,87.74
2022-11-27T08:07:21.089Z,87.11
2022-11-27T08:09:24.928Z,87.27
2022-11-27T08:11:33.120Z,87.02
2022-11-27T08:13:36.809Z,87.80
2022-11-27T08:15:40.400Z,87.49
2022-11-27T08:17:44.095Z,88.10
2022-11-27T08:19:47.822Z,88.57
2022-11-27T08:21:51.752Z,88.74
2022-11-27T08:23:55.801Z,88.09
2022-11-27T08:25:59.630Z,88.04
2022-11-27T08:28:04.826Z,88.54
2022-11-27T08:30:09.912Z,88.68
2022-11-27T08:32:14.011Z,88.52
2022-11-27T08:34:18.002Z,88.51
2022-11-27T08:36:22.695Z,88.59
2022-11-27T08:38:26.877Z,89.25
2022-11-27T08:40:30.861Z,89.15
2022-11-27T08:42:34.764Z,88.89
2022-11-27T08:44:40.234Z,88.68
2022-11-27T08:46:45.061Z,88.50
2022-11-27T08:48:49.415Z,89.01
2022-11-27T08:50:55.338Z,89.41
2022-11-27T08:52:59.901Z,89.45
2022-11-27T08:55:04.804Z,89.89
2022-11-27T08:57:08.630Z,89.85
2022-11-27T08:59:12.548Z,90.34
2022-11-27T09:01:19.954Z,90.14
2022-11-27T09:03:23.700Z,90.11
2022-11-27T09:05:27.792Z,90.01
2022-11-27T09:07:31.666Z,90.13
2022-11-27T09:09:36.340Z,89.80
2022-11-27T09:11:40.574Z,90.26
2022-11-27T09:13:45.305Z,90.02
2022-11-27T09:15:49.318Z,90.24
2022-11-27T09:17:54.652Z,89.54
2022-11-27T09:19:58.529Z,89.60
2022-11-27T09:22:02.941Z,88.85
2022-11-27T09:24:07.712Z,89.24
2022-11-27T09:26:13.661Z,89.87
2022-11-27T09:28:17.645Z,88.99
2022-11-27T09:30:22.644Z,89.26
2022-11-27T09:32:26.327Z,89.75
2022-11-27T09:34:37.151Z,89.36
2022-11-27T09:36:41.293Z,89.30
2022-11-27T09:38:46.051Z,89.83
2022-11-27T09:40:51.542Z,89.03
2022-11-27T09:42:59.028Z,88.68
2022-11-27T09:45:04.652Z,88.15
2022-11-27T09:47:17.259Z,88.99
2022-11-27T09:49:26.818Z,88.29
2022-11-27T09:51:36.729Z,88.50
2022-11-27T09:53:47.693Z,88.14
2022-11-27T09:55:55.852Z,87.91
2022-11-27T09:58:04.406Z,87.34
2022-11-27T10:00:16.707Z,87.64
2022-11-27T10:02:25.461Z,86.34
2022-11-27T10:04:39.852Z,86.11
2022-11-27T10:07:10.639Z,86.07
2022-11-27T10:09:23.925Z,86.09
2022-11-27T10:11:31.865Z,86.47
2022-11-27T10:13:50.784Z,85.95
2022-11-27T10:15:59.663Z,84.29
2022-11-27T10:18:10.953Z,84.13
2022-11-27T10:20:23.896Z,83.84
2022-11-27T10:22:40.653Z,83.75
2022-11-27T10:24:51.272Z,83.20
2022-11-27T10:27:00.487Z,83.01
2022-11-27T10:29:14.439Z,82.63
2022-11-27T10:31:24.965Z,82.71
2022-11-27T10:33:37.249Z,82.22
2022-11-27T10:35:50.743Z,81.11
2022-11-27T10:38:06.432Z,81.25
2022-11-27T10:40:23.142Z,79.98
2022-11-27T10:42:34.619Z,79.75
2022-11-27T10:44:43.698Z,78.98
2022-11-27T10:46:48.703Z,78.79
2022-11-27T10:48:53.604Z,79.05
2022-11-27T10:50:58.400Z,79.36
2022-11-27T10:53:08.103Z,79.97
2022-11-27T10:55:37.024Z,80.68
2022-11-27T10:58:02.276Z,80.38
2022-11-27T11:00:13.789Z,80.01
2022-11-27T11:02:30.827Z,79.75
2022-11-27T11:04:48.356Z,79.93
2022-11-27T11:07:00.252Z,80.14
2022-11-27T11:09:15.410Z,79.55
2022-11-27T11:11:28.220Z,80.16
2022-11-27T11:13:33.287Z,80.51
2022-11-27T11:15:51.902Z,80.47
2022-11-27T11:17:56.270Z,80.92
2022-11-27T11:20:01.022Z,80.66
2022-11-27T11:22:15.097Z,80.75
2022-11-27T11:24:30.369Z,81.07
2022-11-27T11:26:41.004Z,81.19
2022-11-27T11:28:51.609Z,81.16
2022-11-27T11:31:01.459Z,81.00
2022-11-27T11:33:06.283Z,80.55
2022-11-27T11:35:24.551Z,80.13
2022-11-27T11:37:31.535Z,79.89
2022-11-27T11:39:45.917Z,79.63
2022-11-27T11:41:50.462Z,80.06
2022-11-27T11:43:59.824Z,79.70
2022-11-27T11:46:11.312Z,79.52
2022-11-27T11:48:24.086Z,78.98
2022-11-27T11:50:35.651Z,79.54
2022-11-27T11:52:57.657Z,79.73
2022-11-27T11:55:09.419Z,79.78
2022-11-27T11:57:39.790Z,79.97
2022-11-27T11:59:48.680Z,80.16
2022-11-27T12:02:20.191Z,80.76
2022-11-27T12:04:45.666Z,81.01
2022-11-27T12:06:57.102Z,81.28
2022-11-27T12:09:17.020Z,81.91
2022-11-27T12:11:31.594Z,83.66
2022-11-27T12:13:51.961Z,84.51
2022-11-27T12:16:06.960Z,85.53
2022-11-27T12:18:22.005Z,85.65
2022-11-27T12:20:31.339Z,86.45
2022-11-27T12:22:52.068Z,86.39
2022-11-27T12:25:04.474Z,86.90
2022-11-27T12:27:23.071Z,88.03
2022-11-27T12:29:52.930Z,88.76
2022-11-27T12:32:21.371Z,89.73
2022-11-27T12:34:33.473Z,89.82
2022-11-27T12:37:01.441Z,89.23
2022-11-27T12:39:25.789Z,89.63
2022-11-27T12:41:56.810Z,89.01
2022-11-27T12:44:02.102Z,89.07
2022-11-27T12:46:14.904Z,88.97
2022-11-27T12:48:24.997Z,89.11
2022-11-27T12:50:39.956Z,89.04
2022-11-27T12:52:47.669Z,88.82
2022-11-27T12:54:57.434Z,88.95
2022-11-27T12:57:05.591Z,89.34
2022-11-27T12:59:18.160Z,89.26
2022-11-27T13:01:27.660Z,89.04
2022-11-27T13:03:39.169Z,89.46
2022-11-27T13:05:46.842Z,88.97
2022-11-27T13:07:54.979Z,88.60
2022-11-27T13:10:04.545Z,88.47
2022-11-27T13:12:10.843Z,88.64
2022-11-27T13:14:20.752Z,88.05
2022-11-27T13:16:30.287Z,87.96
2022-11-27T13:18:38.591Z,87.81
2022-11-27T13:20:46.231Z,87.41
2022-11-27T13:22:53.565Z,86.78
2022-11-27T13:25:03.164Z,86.78
2022-11-27T13:27:12.171Z,86.74
2022-11-27T13:29:26.600Z,85.87
2022-11-27T13:31:36.438Z,85.67
2022-11-27T13:33:45.259Z,85.15
2022-11-27T13:35:50.176Z,84.93
2022-11-27T13:38:00.423Z,84.71
2022-11-27T13:40:08.490Z,85.18
2022-11-27T13:42:22.706Z,84.44
2022-11-27T13:44:31.191Z,84.50
2022-11-27T13:46:48.650Z,84.88
2022-11-27T13:48:56.388Z,84.69
2022-11-27T13:51:01.692Z,84.64
2022-11-27T13:53:08.603Z,84.31
2022-11-27T13:55:12.452Z,84.28
2022-11-27T13:57:18.283Z,84.49
2022-11-27T13:59:24.150Z,84.25
2022-11-27T14:01:29.823Z,83.59
2022-11-27T14:03:36.752Z,84.12
2022-11-27T14:05:43.183Z,83.73
2022-11-27T14:07:49.828Z,83.06
2022-11-27T14:09:55.904Z,83.17
2022-11-27T14:12:00.113Z,83.30
2022-11-27T14:14:14.369Z,83.59
2022-11-27T14:16:28.286Z,83.36
2022-11-27T14:18:34.646Z,83.62
2022-11-27T14:20:48.406Z,83.73
2022-11-27T14:23:10.964Z,83.88
2022-11-27T14:25:22.038Z,84.20
2022-11-27T14:27:28.245Z,84.07
2022-11-27T14:29:32.213Z,84.94
2022-11-27T14:31:37.525Z,84.81
2022-11-27T14:34:13.715Z,84.73
2022-11-27T14:36:23.039Z,84.90
2022-11-27T14:38:29.087Z,85.59
2022-11-27T14:40:33.021Z,85.47
2022-11-27T14:42:39.336Z,85.27
2022-11-27T14:44:43.133Z,85.25
2022-11-27T14:46:46.965Z,85.55
2022-11-27T14:48:56.348Z,85.93
2022-11-27T14:51:01.167Z,85.85
2022-11-27T14:53:04.962Z,85.70
2022-11-27T14:55:16.334Z,85.75
2022-11-27T14:57:25.572Z,85.77
2022-11-27T14:59:29.691Z,85.80
2022-11-27T15:01:35.183Z,85.45
2022-11-27T15:03:40.253Z,86.04
2022-11-27T15:05:55.143Z,85.65
2022-11-27T15:08:00.402Z,85.38
2022-11-27T15:10:09.080Z,85.51
2022-11-27T15:12:19.917Z,84.95
2022-11-27T15:14:24.205Z,85.20
2022-11-27T15:16:29.886Z,85.34
2022-11-27T15:18:38.337Z,84.78
2022-11-27T15:20:44.547Z,84.74
2022-11-27T15:22:54.869Z,84.94
2022-11-27T15:25:02.947Z,85.09
2022-11-27T15:27:19.266Z,85.00
2022-11-27T15:29:37.042Z,85.23
2022-11-27T15:31:40.989Z,85.44
2022-11-27T15:33:45.125Z,85.47
2022-11-27T15:35:53.799Z,85.22
2022-11-27T15:38:04.879Z,85.42
2022-11-27T15:40:26.656Z,85.26
2022-11-27T15:42:30.858Z,85.82
2022-11-27T15:44:34.904Z,85.63
2022-11-27T15:46:38.959Z,85.58
2022-11-27T15:48:43.434Z,85.34
2022-11-27T15:50:51.720Z,85.15
2022-11-27T15:52:56.029Z,85.34
2022-11-27T15:55:01.119Z,85.30
2022-11-27T15:57:05.331Z,84.81
2022-11-27T15:59:10.364Z,84.93
2022-11-27T16:01:14.136Z,84.69
2022-11-27T16:03:18.463Z,84.70
2022-11-27T16:05:22.658Z,84.99
2022-11-27T16:07:26.917Z,84.29
2022-11-27T16:09:31.132Z,84.03
2022-11-27T16:11:36.693Z,84.49
2022-11-27T16:13:40.599Z,84.67
2022-11-27T16:15:46.522Z,84.43
2022-11-27T16:17:54.238Z,84.79
2022-11-27T16:19:58.331Z,85.03
2022-11-27T16:22:03.216Z,84.63
2022-11-27T16:24:09.080Z,85.08
2022-11-27T16:26:14.579Z,84.83
2022-11-27T16:28:20.374Z,84.36
2022-11-27T16:30:25.282Z,83.82
2022-11-27T16:32:30.986Z,84.26
2022-11-27T16:34:35.581Z,84.26
2022-11-27T16:36:42.056Z,84.35
2022-11-27T16:38:47.850Z,84.77
2022-11-27T16:40:51.970Z,84.62
2022-11-27T16:42:56.268Z,84.80
2022-11-27T16:45:03.169Z,84.42
2022-11-27T16:47:06.808Z,85.30
2022-11-27T16:49:11.343Z,85.53
2022-11-27T16:51:19.035Z,85.53
2022-11-27T16:53:22.822Z,85.57
2022-11-27T16:55:27.508Z,86.25
2022-11-27T16:57:31.256Z,85.94
2022-11-27T16:59:38.187Z,86.26
2022-11-27T17:01:43.790Z,86.89
2022-11-27T17:03:47.477Z,87.28
2022-11-27T17:05:51.639Z,86.92
2022-11-27T17:07:56.687Z,87.18
2022-11-27T17:10:00.671Z,87.51
2022-11-27T17:12:04.854Z,86.94
2022-11-27T17:14:11.077Z,87.36
2022-11-27T17:16:16.111Z,87.35
2022-11-27T17:18:21.575Z,87.22
2022-11-27T17:20:25.999Z,87.07
2022-11-27T17:22:31.451Z,87.40
2022-11-27T17:24:36.110Z,87.66
2022-11-27T17:26:43.745Z,87.36
2022-11-27T17:28:49.283Z,87.47
2022-11-27T17:30:54.331Z,87.66
2022-11-27T17:32:59.708Z,87.66
2022-11-27T17:35:05.469Z,87.39
2022-11-27T17:37:09.426Z,87.76
2022-11-27T17:39:14.965Z,87.63
2022-11-27T17:41:19.886Z,87.42
2022-11-27T17:43:25.775Z,88.03
2022-11-27T17:45:29.485Z,87.85
2022-11-27T17:47:34.853Z,88.40
2022-11-27T17:49:40.034Z,87.75
2022-11-27T17:51:47.395Z,88.09
2022-11-27T17:53:51.735Z,88.37
2022-11-27T17:55:57.950Z,87.91
2022-11-27T17:58:05.117Z,88.09
2022-11-27T18:00:11.367Z,88.39
2022-11-27T18:02:18.388Z,88.49
2022-11-27T18:04:25.279Z,88.84
2022-11-27T18:06:30.367Z,88.97
2022-11-27T18:08:36.908Z,88.81
2022-11-27T18:10:41.428Z,89.11
2022-11-27T18:12:46.136Z,88.99
2022-11-27T18:14:57.892Z,88.52
2022-11-27T18:17:07.215Z,88.84
2022-11-27T18:19:14.070Z,88.90
2022-11-27T18:21:21.048Z,88.74
2022-11-27T18:23:25.114Z,88.82
2022-11-27T18:25:31.057Z,89.26
2022-11-27T18:27:35.833Z,89.38
2022-11-27T18:29:42.812Z,88.43
2022-11-27T18:31:47.853Z,88.86
2022-11-27T18:33:52.217Z,89.15
2022-11-27T18:35:56.524Z,88.71
2022-11-27T18:38:00.926Z,89.37
2022-11-27T18:40:06.273Z,89.19
2022-11-27T18:42:11.665Z,89.42
2022-11-27T18:44:15.394Z,88.62
2022-11-27T18:46:20.098Z,89.37
2022-11-27T18:48:24.742Z,89.27
2022-11-27T18:50:30.367Z,89.80
2022-11-27T18:52:34.290Z,90.16
2022-11-27T18:54:39.873Z,90.85
2022-11-27T18:56:44.636Z,90.83
2022-11-27T18:58:52.151Z,90.59
2022-11-27T19:00:57.774Z,90.63
2022-11-27T19:03:01.834Z,91.10
2022-11-27T19:05:07.748Z,90.77
2022-11-27T19:07:12.605Z,91.18
2022-11-27T19:09:17.440Z,91.38
2022-11-27T19:11:33.415Z,92.13
2022-11-27T19:13:39.007Z,91.99
2022-11-27T19:15:46.431Z,91.99
2022-11-27T19:17:50.729Z,91.90
2022-11-27T19:19:57.378Z,91.81
2022-11-27T19:22:03.052Z,91.75
2022-11-27T19:24:08.829Z,91.95
2022-11-27T19:26:15.408Z,91.66
2022-11-27T19:28:20.324Z,91.48
2022-11-27T19:30:28.179Z,91.92
2022-11-27T19:32:37.529Z,91.79
2022-11-27T19:34:45.623Z,92.21
2022-11-27T19:36:50.342Z,92.11
2022-11-27T19:38:58.147Z,92.29
2022-11-27T19:41:04.881Z,92.26
2022-11-27T19:43:10.089Z,93.29
2022-11-27T19:45:15.623Z,93.46
2022-11-27T19:47:26.500Z,93.62
2022-11-27T19:49:34.352Z,93.59
2022-11-27T19:51:41.949Z,93.51
2022-11-27T19:53:48.723Z,93.54
2022-11-27T19:55:55.950Z,93.05
2022-11-27T19:58:04.169Z,92.91
2022-11-27T20:00:14.753Z,93.28
2022-11-27T20:02:19.535Z,93.63
2022-11-27T20:04:25.471Z,93.81
2022-11-27T20:06:32.009Z,93.95
2022-11-27T20:08:38.209Z,93.99
2022-11-27T20:10:43.013Z,93.85
2022-11-27T20:12:47.490Z,94.90
2022-11-27T20:14:52.941Z,95.26
2022-11-27T20:17:19.373Z,95.56
2022-11-27T20:19:24.737Z,95.12
2022-11-27T20:21:33.224Z,94.81
2022-11-27T20:23:38.565Z,94.67
2022-11-27T20:25:50.283Z,94.00
2022-11-27T20:27:57.876Z,94.32
2022-11-27T20:30:03.031Z,93.40
2022-11-27T20:32:07.323Z,93.81
2022-11-27T20:34:16.840Z,93.79
2022-11-27T20:36:27.239Z,93.83
2022-11-27T20:38:34.958Z,93.22
2022-11-27T20:40:41.816Z,93.09
2022-11-27T20:42:46.998Z,92.96
2022-11-27T20:44:54.284Z,92.75
2022-11-27T20:46:58.889Z,93.33
2022-11-27T20:49:03.097Z,92.72
2022-11-27T20:51:08.990Z,93.37
2022-11-27T20:53:14.001Z,93.42
2022-11-27T20:55:20.352Z,93.31
2022-11-27T20:57:28.613Z,93.10
2022-11-27T20:59:34.580Z,93.04
2022-11-27T21:01:39.432Z,93.92
2022-11-27T21:03:43.756Z,93.27
2022-11-27T21:05:48.991Z,93.52
2022-11-27T21:07:53.433Z,93.38
2022-11-27T21:09:59.067Z,94.40
2022-11-27T21:12:06.850Z,95.28
2022-11-27T21:14:14.257Z,95.03
2022-11-27T21:16:19.283Z,95.24
2022-11-27T21:18:24.385Z,94.78
2022-11-27T21:20:30.956Z,95.09
2022-11-27T21:22:36.153Z,94.56
2022-11-27T21:24:40.112Z,94.86
2022-11-27T21:26:47.878Z,94.48
2022-11-27T21:28:54.622Z,94.16
2022-11-27T21:31:07.564Z,94.81
2022-11-27T21:33:12.630Z,94.19
2022-11-27T21:35:17.675Z,94.32
2022-11-27T21:37:22.220Z,93.98
2022-11-27T21:39:27.028Z,94.30
2022-11-27T21:41:32.257Z,93.64
2022-11-27T21:43:37.335Z,94.26
2022-11-27T21:45:43.131Z,93.67
2022-11-27T21:47:48.029Z,93.49
2022-11-27T21:49:52.562Z,93.92
2022-11-27T21:51:57.308Z,93.51
2022-11-27T21:54:09.980Z,93.83
2022-11-27T21:56:17.202Z,93.28
2022-11-27T21:58:21.121Z,93.53
2022-11-27T22:00:25.833Z,93.78
2022-11-27T22:02:31.439Z,93.33
2022-11-27T22:04:35.527Z,92.94
2022-11-27T22:06:41.449Z,93.19
2022-11-27T22:08:47.057Z,93.03
2022-11-27T22:10:51.312Z,92.69
2022-11-27T22:12:55.373Z,92.61
2022-11-27T22:15:00.221Z,92.31
2022-11-27T22:17:04.713Z,92.71
2022-11-27T22:19:10.542Z,93.02
2022-11-27T22:21:16.318Z,92.64
2022-11-27T22:23:20.955Z,92.51
2022-11-27T22:25:27.545Z,92.98
2022-11-27T22:27:32.386Z,92.50
2022-11-27T22:29:36.721Z,92.36
2022-11-27T22:31:40.902Z,92.40
2022-11-27T22:33:45.719Z,92.57
2022-11-27T22:35:51.773Z,92.64
2022-11-27T22:37:57.546Z,92.67
2022-11-27T22:40:01.601Z,92.79
2022-11-27T22:42:06.022Z,92.72
2022-11-27T22:44:12.764Z,92.51
2022-11-27T22:46:20.180Z,93.14
2022-11-27T22:48:24.589Z,92.48
2022-11-27T22:50:28.731Z,92.35
2022-11-27T22:52:34.916Z,92.26
2022-11-27T22:54:40.060Z,92.61
2022-11-27T22:56:46.145Z,92.50
2022-11-27T22:58:58.213Z,92.09
2022-11-27T23:01:16.034Z,92.24
2022-11-27T23:03:19.828Z,92.54
2022-11-27T23:05:24.038Z,92.42
2022-11-27T23:07:28.528Z,92.29
2022-11-27T23:09:35.140Z,92.12
2022-11-27T23:11:39.094Z,92.48
2022-11-27T23:13:49.449Z,92.01
2022-11-27T23:15:53.954Z,92.07
2022-11-27T23:17:59.229Z,91.69
2022-11-27T23:20:03.169Z,91.64
2022-11-27T23:22:08.167Z,92.24
2022-11-27T23:24:15.473Z,91.66
2022-11-27T23:26:25.562Z,91.59
2022-11-27T23:28:31.184Z,91.56
2022-11-27T23:30:36.692Z,91.22
2022-11-27T23:32:40.953Z,90.81
2022-11-27T23:34:45.056Z,90.83
2022-11-27T23:36:49.179Z,90.51
2022-11-27T23:38:53.209Z,90.75
2022-11-27T23:40:57.319Z,90.52
2022-11-27T23:43:03.006Z,90.25
2022-11-27T23:45:07.934Z,90.19
2022-11-27T23:47:12.341Z,90.10
2022-11-27T23:49:17.227Z,89.99
2022-11-27T23:51:23.906Z,89.44
2022-11-27T23:53:29.933Z,89.76
2022-11-27T23:55:35.519Z,89.47
2022-11-27T23:57:39.781Z,89.83
2022-11-27T23:59:45.616Z,89.44
